Terminal Aerodrome Forecast
Issued by NWS

Home | Current Version | Previous Version | Text Only | Print | Product List | Glossary On
Versions: 1 2 3 4 5 6 7 8 9 10 11 12 13
000
FTUS43 KOAX 220520
TAFBFF
TAF
KBFF 220520Z 2206/2306 30016KT P6SM BKN080
     FM221500 31028G45KT P6SM BKN080
     FM230100 31020KT P6SM BKN040=

USA.gov is the U.S. government's official web portal to all federal, state and local government web resources and services.